Terminal Aerodrome Forecast
Issued by NWS

Current Version | Previous Version | Graphics & Text | Print | Product List | Glossary On
Versions: 1 2 3 4 5 6 7 8 9 10 11 12 13 14 15 16 17
907
FTUS41 KPBZ 071730
TAFMGW
TAF
KMGW 071730Z 0718/0818 26008KT P6SM SCT250
     FM081600 25010KT P6SM BKN060=

USA.gov is the U.S. government's official web portal to all federal, state and local government web resources and services.